Time;durP1;ratioP1;P1;durP2;ratioP2;P2;SDS_P1;SDS_P2;PMS_P1;PMS_P2;Temp;Humidity;BMP_temperature;BMP_pressure;BME280_temperature;BME280_humidity;BME280_pressure;Samples;Min_cycle;Max_cycle;Signal;HPM_P1;HPM_P2
2020/12/22 13:08:14;;;;;;;36.97;17.10;;;;;;;;;;4924734;27;20398;-56
2020/12/22 13:10:39;;;;;;;64.32;15.77;;;;;;;;;;5014396;28;20034;-56
2020/12/22 13:13:04;;;;;;;68.37;13.87;;;;;;;;;;5013850;28;20065;-55
2020/12/22 13:15:29;;;;;;;68.93;13.37;;;;;;;;;;4963166;28;20059;-55
2020/12/22 13:17:54;;;;;;;67.07;12.10;;;;;;;;;;5009028;28;20284;-56
2020/12/22 13:20:19;;;;;;;52.85;9.02;;;;;;;;;;4998889;28;20018;-57
2020/12/22 13:22:44;;;;;;;32.57;7.83;;;;;;;;;;4997510;28;20020;-56
2020/12/22 13:25:10;;;;;;;32.47;8.02;;;;;;;;;;4999431;28;20022;-57
2020/12/22 13:27:35;;;;;;;28.43;6.27;;;;;;;;;;4997213;28;20034;-57
2020/12/22 13:30:00;;;;;;;25.80;5.80;;;;;;;;;;5000544;28;20018;-57
2020/12/22 13:32:25;;;;;;;17.17;5.57;;;;;;;;;;4998467;28;20018;-57
2020/12/22 13:34:50;;;;;;;17.80;4.78;;;;;;;;;;4997132;28;20018;-57
2020/12/22 13:37:15;;;;;;;13.70;4.50;;;;;;;;;;4988443;28;20030;-62
2020/12/22 13:39:40;;;;;;;21.30;4.67;;;;;;;;;;5006071;28;20042;-56
2020/12/22 13:42:06;;;;;;;10.75;3.78;;;;;;;;;;5014548;28;20021;-55
2020/12/22 13:44:31;;;;;;;18.67;3.90;;;;;;;;;;5015392;28;20092;-55
2020/12/22 13:46:56;;;;;;;14.63;3.83;;;;;;;;;;5015276;28;20038;-56
2020/12/22 13:49:21;;;;;;;7.22;3.25;;;;;;;;;;5015569;28;20013;-56
2020/12/22 13:51:50;;;;;;;6.63;2.88;;;;;;;;;;5014323;28;20033;-55
2020/12/22 13:54:15;;;;;;;7.65;2.85;;;;;;;;;;5010821;28;20121;-55
2020/12/22 13:56:41;;;;;;;3.97;2.92;;;;;;;;;;5009387;28;20108;-57
2020/12/22 13:59:07;;;;;;;6.97;2.60;;;;;;;;;;5012231;28;20034;-56
2020/12/22 14:01:32;;;;;;;5.95;2.90;;;;;;;;;;5013427;28;20616;-55
2020/12/22 14:03:57;;;;;;;5.25;2.50;;;;;;;;;;5012483;28;20398;-56
2020/12/22 14:06:26;;;;;;;4.43;2.20;;;;;;;;;;5012887;28;20076;-56
2020/12/22 14:08:51;;;;;;;10.73;2.63;;;;;;;;;;5013591;28;20026;-56
2020/12/22 14:11:17;;;;;;;8.13;2.65;;;;;;;;;;5016479;28;20105;-56
2020/12/22 14:13:42;;;;;;;10.27;2.72;;;;;;;;;;5013748;28;20081;-56
2020/12/22 14:16:10;;;;;;;8.95;2.78;;;;;;;;;;5014481;28;20045;-56
2020/12/22 14:18:35;;;;;;;10.02;2.63;;;;;;;;;;5008707;28;20108;-56
2020/12/22 14:21:00;;;;;;;4.40;2.22;;;;;;;;;;5002535;28;20022;-56
2020/12/22 14:23:25;;;;;;;4.43;2.37;;;;;;;;;;5001414;28;20018;-54
2020/12/22 14:25:51;;;;;;;4.78;2.10;;;;;;;;;;4999394;28;20113;-57
2020/12/22 14:28:16;;;;;;;5.33;2.50;;;;;;;;;;5000475;28;20540;-57
2020/12/22 14:30:41;;;;;;;6.78;2.45;;;;;;;;;;5000419;28;20457;-58
2020/12/22 14:33:06;;;;;;;5.03;2.05;;;;;;;;;;5000661;28;20485;-57
2020/12/22 14:35:31;;;;;;;6.47;2.38;;;;;;;;;;4999657;28;21130;-56
2020/12/22 14:37:56;;;;;;;8.82;2.42;;;;;;;;;;4999261;28;20410;-57
2020/12/22 14:40:21;;;;;;;6.28;2.55;;;;;;;;;;5000574;28;20092;-58
2020/12/22 14:42:47;;;;;;;2.78;1.90;;;;;;;;;;5002728;28;20516;-58
2020/12/22 14:45:12;;;;;;;3.67;2.00;;;;;;;;;;4979685;28;20034;-57
2020/12/22 14:47:37;;;;;;;6.00;2.42;;;;;;;;;;5004747;28;20034;-59
2020/12/22 14:50:02;;;;;;;8.40;2.45;;;;;;;;;;5001994;28;20034;-58
2020/12/22 14:52:27;;;;;;;4.00;1.92;;;;;;;;;;5001807;28;20076;-56
2020/12/22 14:54:53;;;;;;;9.60;2.10;;;;;;;;;;5002545;28;20017;-56
2020/12/22 14:57:18;;;;;;;7.28;2.10;;;;;;;;;;5001636;28;20029;-56
2020/12/22 14:59:43;;;;;;;5.22;1.95;;;;;;;;;;5001997;28;20099;-56
2020/12/22 15:02:09;;;;;;;5.65;1.83;;;;;;;;;;5001545;28;20026;-55
2020/12/22 15:04:35;;;;;;;7.90;2.15;;;;;;;;;;5002112;28;20025;-55
2020/12/22 15:08:56;;;;;;;5.60;1.98;;;;;;;;;;5088286;27;20405;-52
2020/12/22 15:11:21;;;;;;;13.20;2.50;;;;;;;;;;5065234;28;20031;-52
2020/12/22 15:14:30;;;;;;;8.90;2.38;;;;;;;;;;5068498;27;20401;-52
2020/12/22 15:16:55;;;;;;;5.53;2.10;;;;;;;;;;5074020;28;20478;-51
2020/12/22 15:19:20;;;;;;;5.53;2.22;;;;;;;;;;5083031;28;20520;-51
2020/12/22 15:21:45;;;;;;;11.67;2.33;;;;;;;;;;5070660;28;20383;-52
2020/12/22 15:24:10;;;;;;;4.63;2.20;;;;;;;;;;5066381;28;20028;-53
2020/12/22 15:26:35;;;;;;;5.65;1.95;;;;;;;;;;5084858;28;20060;-53
2020/12/22 15:29:00;;;;;;;8.23;2.10;;;;;;;;;;5082936;28;20032;-53
2020/12/22 15:31:26;;;;;;;9.83;2.10;;;;;;;;;;5092045;28;20044;-52
2020/12/22 15:33:51;;;;;;;5.13;2.20;;;;;;;;;;5095655;28;20043;-53
2020/12/22 15:36:16;;;;;;;3.80;1.63;;;;;;;;;;5091403;28;20027;-52
2020/12/22 15:38:41;;;;;;;4.67;2.20;;;;;;;;;;5096310;28;20065;-53
2020/12/22 15:41:07;;;;;;;9.10;2.50;;;;;;;;;;5095587;28;20883;-53
2020/12/22 20:13:01;;;;;;;12.95;7.75;;;;;;;;;;5017146;27;20776;-58
2020/12/22 20:15:26;;;;;;;15.07;8.07;;;;;;;;;;5054243;28;20399;-52
